Time;durP1;ratioP1;P1;durP2;ratioP2;P2;SDS_P1;SDS_P2;PMS_P1;PMS_P2;Temp;Humidity;BMP_temperature;BMP_pressure;BME280_temperature;BME280_humidity;BME280_pressure;Samples;Min_cycle;Max_cycle;Signal;HPM_P1;HPM_P2
2022/07/10 00:01:01;;;;;;;0.43;0.43;;;;;;;18.70;44.46;101628.50;4895925;29;20028;-78
2022/07/10 00:03:27;;;;;;;0.85;0.45;;;;;;;18.59;44.71;101634.16;4890957;29;20550;-78
2022/07/10 00:05:52;;;;;;;0.88;0.50;;;;;;;18.48;44.63;101649.19;4908053;29;20024;-79
2022/07/10 00:08:17;;;;;;;0.60;0.52;;;;;;;18.35;45.16;101649.88;4893190;29;20092;-79
2022/07/10 00:10:43;;;;;;;0.50;0.40;;;;;;;18.24;45.16;101644.41;4897955;29;20183;-76
2022/07/10 00:13:08;;;;;;;0.70;0.50;;;;;;;18.11;45.01;101645.06;4922274;29;20395;-79
2022/07/10 00:15:34;;;;;;;0.22;0.22;;;;;;;18.04;45.42;101644.56;4905924;29;20020;-78
2022/07/10 00:17:59;;;;;;;0.40;0.40;;;;;;;17.99;45.55;101641.81;4906921;29;20028;-82
2022/07/10 00:20:25;;;;;;;1.15;0.55;;;;;;;17.98;45.52;101645.72;4889650;29;20098;-79
2022/07/10 00:22:50;;;;;;;0.57;0.40;;;;;;;17.87;45.88;101647.66;4907956;29;20032;-80
2022/07/10 00:25:16;;;;;;;0.65;0.30;;;;;;;17.96;45.85;101649.56;4905988;29;20490;-78
2022/07/10 00:27:41;;;;;;;0.40;0.40;;;;;;;17.92;45.60;101656.78;4893055;29;20032;-78
2022/07/10 00:30:08;;;;;;;1.00;0.43;;;;;;;17.92;45.45;101665.09;4907777;29;20032;-77
2022/07/10 00:32:34;;;;;;;2.17;0.70;;;;;;;17.80;46.34;101670.94;4923527;29;20249;-79
2022/07/10 00:35:01;;;;;;;1.63;0.63;;;;;;;17.60;47.10;101671.84;4905964;29;20282;-77
2022/07/10 00:37:27;;;;;;;0.70;0.50;;;;;;;17.50;47.28;101671.91;4920911;29;20468;-78
2022/07/10 00:39:54;;;;;;;0.68;0.40;;;;;;;17.38;47.40;101661.16;4906281;29;20043;-77
2022/07/10 00:42:20;;;;;;;1.30;0.43;;;;;;;17.28;47.58;101662.00;4920325;29;20028;-78
2022/07/10 00:44:45;;;;;;;0.30;0.30;;;;;;;17.23;48.00;101667.56;4915367;29;20032;-77
2022/07/10 00:47:11;;;;;;;0.90;0.43;;;;;;;17.30;47.64;101663.69;4918188;29;20383;-77
2022/07/10 00:49:38;;;;;;;0.45;0.40;;;;;;;17.24;47.24;101660.94;4876414;29;20159;-78
2022/07/10 00:52:06;;;;;;;0.75;0.45;;;;;;;17.13;47.77;101666.75;4922898;29;20020;-77
2022/07/10 00:54:34;;;;;;;0.47;0.40;;;;;;;16.99;48.29;101652.72;4919625;29;20564;-76
2022/07/10 00:56:59;;;;;;;0.60;0.40;;;;;;;16.90;48.60;101653.28;4903718;29;20096;-77
2022/07/10 00:59:27;;;;;;;1.15;0.50;;;;;;;16.89;48.45;101665.44;4920966;29;20047;-78
2022/07/10 01:01:52;;;;;;;0.95;0.40;;;;;;;16.81;48.47;101660.44;4921950;29;20017;-78
2022/07/10 01:04:18;;;;;;;0.70;0.57;;;;;;;16.79;48.55;101650.78;4923216;29;20115;-77
2022/07/10 01:06:43;;;;;;;0.70;0.30;;;;;;;16.79;48.63;101654.34;4922829;29;20103;-77
2022/07/10 01:09:09;;;;;;;0.57;0.50;;;;;;;16.77;48.69;101642.75;4921509;29;20101;-78
2022/07/10 01:11:36;;;;;;;0.40;0.40;;;;;;;16.80;48.63;101633.91;4906522;29;20024;-79
2022/07/10 01:14:02;;;;;;;0.40;0.40;;;;;;;16.82;48.81;101642.78;4875794;29;20024;-79
2022/07/10 01:16:29;;;;;;;0.65;0.50;;;;;;;16.80;49.17;101633.91;4918874;29;20118;-77
2022/07/10 01:18:55;;;;;;;0.63;0.40;;;;;;;16.90;49.01;101633.94;4918125;29;20535;-79
2022/07/10 01:21:32;;;;;;;0.60;0.55;;;;;;;16.80;48.73;101625.63;4890949;29;20059;-79
2022/07/10 01:23:59;;;;;;;0.50;0.50;;;;;;;16.87;48.61;101628.97;4903484;29;20508;-79
2022/07/10 01:26:25;;;;;;;0.82;0.50;;;;;;;16.97;48.46;101624.50;4906155;29;20024;-78
2022/07/10 01:28:53;;;;;;;0.85;0.50;;;;;;;17.03;48.69;101631.72;4885649;29;20487;-78
2022/07/10 01:31:20;;;;;;;1.00;0.30;;;;;;;17.02;48.44;101621.75;4906615;29;20047;-77
2022/07/10 01:33:48;;;;;;;0.93;0.50;;;;;;;16.95;48.84;101619.28;4897100;29;20060;-78
2022/07/10 01:36:14;;;;;;;0.93;0.40;;;;;;;16.92;48.78;101623.44;4905966;29;20075;-78
2022/07/10 01:38:40;;;;;;;0.40;0.30;;;;;;;16.85;48.91;101620.13;4916360;29;20032;-76
2022/07/10 01:41:08;;;;;;;0.57;0.50;;;;;;;16.87;49.04;101617.91;4885135;29;20432;-78
2022/07/10 01:43:35;;;;;;;0.95;0.50;;;;;;;16.85;48.86;101614.59;4899521;29;20039;-78
2022/07/10 01:46:00;;;;;;;0.68;0.45;;;;;;;16.85;48.90;101614.59;4898619;29;20032;-79
2022/07/10 01:48:26;;;;;;;0.85;0.60;;;;;;;16.75;48.95;101609.09;4905383;29;20127;-78
2022/07/10 01:50:51;;;;;;;2.25;0.63;;;;;;;16.90;49.52;101614.59;4888594;29;20059;-78
2022/07/10 01:53:17;;;;;;;0.88;0.50;;;;;;;17.07;48.73;101605.19;4886546;29;20429;-78
2022/07/10 01:55:42;;;;;;;0.77;0.40;;;;;;;17.25;48.75;101615.59;4883114;29;20391;-79
2022/07/10 01:58:08;;;;;;;2.47;0.50;;;;;;;17.31;48.33;101608.09;4881968;29;20092;-77
2022/07/10 02:00:33;;;;;;;1.23;0.40;;;;;;;17.25;48.48;101610.06;4889647;29;20118;-79
2022/07/10 02:05:42;;;;;;;0.43;0.43;;;;;;;17.13;48.68;101612.34;4921553;29;20600;-77
2022/07/10 02:08:08;;;;;;;0.93;0.52;;;;;;;17.12;48.66;101618.13;4886723;29;20044;-76
2022/07/10 02:10:33;;;;;;;0.73;0.50;;;;;;;17.06;48.94;101618.16;4921996;29;20119;-78
2022/07/10 02:13:01;;;;;;;1.23;0.55;;;;;;;16.93;48.93;101608.50;4911907;29;20091;-77
2022/07/10 02:15:27;;;;;;;1.38;0.40;;;;;;;16.81;49.38;101613.47;4900809;29;20131;-78
2022/07/10 02:17:52;;;;;;;0.40;0.40;;;;;;;16.73;49.36;101616.81;4890677;29;20147;-77
2022/07/10 02:20:17;;;;;;;0.40;0.40;;;;;;;16.61;49.62;101622.63;4904062;29;20063;-78
2022/07/10 02:22:43;;;;;;;0.80;0.45;;;;;;;16.51;50.01;101620.69;4911203;29;20472;-77
2022/07/10 02:25:08;;;;;;;0.47;0.43;;;;;;;16.45;50.13;101619.03;4884779;29;20032;-77
2022/07/10 02:27:34;;;;;;;0.50;0.40;;;;;;;16.33;49.93;101624.03;4913450;29;20031;-81
2022/07/10 02:29:59;;;;;;;1.00;0.50;;;;;;;16.20;50.45;101620.69;4885167;29;20076;-78
2022/07/10 02:32:25;;;;;;;0.30;0.30;;;;;;;16.06;50.52;101619.56;4904505;29;20127;-77
2022/07/10 02:34:50;;;;;;;1.20;0.50;;;;;;;15.94;50.97;101617.06;4903667;29;20039;-77
2022/07/10 02:37:16;;;;;;;2.47;0.50;;;;;;;15.77;51.70;101611.78;4904483;29;20028;-76
2022/07/10 02:39:41;;;;;;;2.80;0.70;;;;;;;15.58;52.04;101616.13;4898210;29;20035;-77
2022/07/10 02:42:07;;;;;;;1.65;0.60;;;;;;;15.43;52.99;101614.97;4883330;29;20031;-78
2022/07/10 02:44:32;;;;;;;3.25;0.57;;;;;;;15.27;53.40;101602.22;4908107;29;20036;-77
2022/07/10 02:46:58;;;;;;;2.33;0.90;;;;;;;15.19;54.19;101612.66;4901490;29;20028;-77
2022/07/10 02:49:23;;;;;;;1.88;0.90;;;;;;;15.05;54.05;101611.47;4908923;29;20025;-77
2022/07/10 02:51:48;;;;;;;1.98;0.57;;;;;;;14.98;54.53;101617.25;4913010;29;20062;-78
2022/07/10 02:54:14;;;;;;;0.90;0.60;;;;;;;14.88;54.79;101610.84;4911263;29;20044;-77
2022/07/10 02:56:39;;;;;;;1.10;0.60;;;;;;;14.82;54.84;101613.56;4903266;29;20457;-77
2022/07/10 02:59:06;;;;;;;0.95;0.73;;;;;;;14.77;54.82;101608.03;4924563;29;20092;-77
2022/07/10 03:01:32;;;;;;;1.45;0.63;;;;;;;14.74;55.27;101605.81;4911296;29;20052;-77
2022/07/10 03:03:57;;;;;;;1.75;0.75;;;;;;;14.70;55.34;101607.41;4924809;29;20035;-77
2022/07/10 03:06:23;;;;;;;1.02;0.40;;;;;;;14.66;55.81;101609.06;4910909;29;20065;-78
2022/07/10 03:08:49;;;;;;;0.68;0.57;;;;;;;14.58;55.50;101612.28;4926294;29;20467;-77
2022/07/10 03:11:14;;;;;;;0.70;0.50;;;;;;;14.54;55.64;101613.88;4906282;29;21294;-77
2022/07/10 03:13:40;;;;;;;1.00;0.30;;;;;;;14.53;55.60;101612.22;4911971;29;20109;-78
2022/07/10 03:16:06;;;;;;;0.70;0.60;;;;;;;14.55;55.54;101610.06;4921564;29;20123;-77
2022/07/10 03:18:31;;;;;;;0.88;0.80;;;;;;;14.59;55.68;101600.19;4926230;29;20448;-78
2022/07/10 03:20:56;;;;;;;1.23;0.65;;;;;;;14.63;55.82;101610.41;4885875;29;20028;-78
2022/07/10 03:23:22;;;;;;;1.63;0.60;;;;;;;14.61;55.66;101598.81;4901492;29;20063;-78
2022/07/10 03:25:48;;;;;;;1.23;0.80;;;;;;;14.62;55.70;101599.66;4909353;29;20028;-78
2022/07/10 03:28:13;;;;;;;1.40;0.50;;;;;;;14.81;55.88;101600.88;4917246;29;20039;-78
2022/07/10 03:30:39;;;;;;;0.40;0.40;;;;;;;14.97;55.16;101610.06;4926301;29;20076;-78
2022/07/10 03:33:04;;;;;;;0.50;0.50;;;;;;;14.97;55.06;101610.06;4909904;29;20468;-78
2022/07/10 03:35:33;;;;;;;0.60;0.60;;;;;;;15.28;54.94;101601.13;4924326;29;20028;-78
2022/07/10 03:37:58;;;;;;;1.70;0.68;;;;;;;15.41;54.38;101602.56;4907381;29;20039;-78
2022/07/10 03:40:25;;;;;;;1.30;0.57;;;;;;;15.53;54.10;101595.69;4894101;29;20032;-78
2022/07/10 03:42:51;;;;;;;3.35;0.70;;;;;;;15.44;53.99;101586.31;4895464;29;20052;-77
2022/07/10 03:45:16;;;;;;;0.30;0.30;;;;;;;15.43;54.30;101594.84;4896339;29;20043;-78
2022/07/10 03:47:41;;;;;;;0.68;0.50;;;;;;;15.44;54.11;101585.50;4889497;29;20552;-79
2022/07/10 03:50:07;;;;;;;1.20;0.57;;;;;;;15.75;53.85;101591.91;4893927;29;20441;-77
2022/07/10 03:52:33;;;;;;;3.17;0.40;;;;;;;15.92;53.32;101579.84;4911501;29;20035;-77
2022/07/10 03:54:58;;;;;;;3.47;0.68;;;;;;;15.82;53.69;101581.47;4911680;29;20107;-76
2022/07/10 04:00:08;;;;;;;0.47;0.32;;;;;;;15.67;53.95;101584.19;4916723;29;20253;-77
2022/07/10 04:02:34;;;;;;;0.30;0.30;;;;;;;15.61;54.01;101580.59;4922536;29;20549;-77
2022/07/10 04:04:59;;;;;;;0.90;0.40;;;;;;;15.45;54.11;101576.94;4906847;29;20391;-76
2022/07/10 04:07:24;;;;;;;0.73;0.30;;;;;;;15.34;54.37;101580.75;4908297;29;20039;-77
2022/07/10 04:09:50;;;;;;;0.55;0.47;;;;;;;15.38;54.68;101570.88;4914893;29;20039;-77
2022/07/10 04:12:15;;;;;;;0.47;0.47;;;;;;;15.64;54.34;101584.72;4898357;29;20107;-76
2022/07/10 04:14:41;;;;;;;0.75;0.40;;;;;;;15.64;53.71;101580.03;4910339;29;20053;-77
2022/07/10 04:17:06;;;;;;;1.00;0.65;;;;;;;15.58;54.30;101575.63;4905577;29;20028;-77
2022/07/10 04:19:32;;;;;;;1.35;0.50;;;;;;;15.51;54.23;101575.84;4894415;29;20121;-77
2022/07/10 04:21:57;;;;;;;0.20;0.20;;;;;;;15.39;54.74;101578.03;4917174;29;20036;-78
2022/07/10 04:24:23;;;;;;;0.35;0.35;;;;;;;15.31;54.72;101584.06;4909554;29;20020;-77
2022/07/10 04:26:48;;;;;;;1.48;0.52;;;;;;;15.11;55.56;101587.56;4888417;29;20028;-77
2022/07/10 04:29:14;;;;;;;2.95;0.52;;;;;;;14.92;56.34;101589.94;4879685;29;20046;-78
2022/07/10 04:31:39;;;;;;;0.68;0.57;;;;;;;14.74;56.95;101593.97;4906301;29;20036;-78
2022/07/10 04:34:05;;;;;;;0.68;0.50;;;;;;;14.62;57.33;101596.91;4906214;29;20028;-77
2022/07/10 04:36:30;;;;;;;1.13;0.40;;;;;;;14.53;57.23;101593.81;4907400;29;20096;-79
2022/07/10 04:38:56;;;;;;;1.67;0.47;;;;;;;14.45;57.28;101581.34;4890080;29;20028;-78
2022/07/10 04:41:21;;;;;;;0.60;0.50;;;;;;;14.53;57.48;101587.44;4914620;29;20036;-78
2022/07/10 04:43:47;;;;;;;1.90;0.60;;;;;;;14.60;57.38;101593.56;4906467;29;20054;-79
2022/07/10 04:46:12;;;;;;;0.80;0.60;;;;;;;14.62;57.16;101591.41;4912822;29;20060;-78
2022/07/10 04:48:38;;;;;;;0.40;0.40;;;;;;;14.63;57.17;101588.41;4888514;29;20039;-78
2022/07/10 04:51:03;;;;;;;0.88;0.50;;;;;;;14.68;57.12;101589.53;4903728;29;20092;-80
2022/07/10 04:53:29;;;;;;;0.50;0.40;;;;;;;14.62;57.20;101585.91;4918476;29;20028;-78
2022/07/10 04:55:54;;;;;;;0.50;0.50;;;;;;;14.57;57.51;101591.34;4888121;29;20052;-80
2022/07/10 04:58:20;;;;;;;2.40;0.60;;;;;;;14.55;57.60;101586.09;4922747;29;20041;-79
2022/07/10 05:00:45;;;;;;;1.58;0.60;;;;;;;14.58;57.92;101585.56;4895241;29;20093;-79
2022/07/10 05:03:10;;;;;;;0.77;0.50;;;;;;;14.60;57.82;101582.53;4915620;29;20055;-78
2022/07/10 05:05:36;;;;;;;0.90;0.60;;;;;;;14.66;57.83;101587.88;4890145;29;20068;-79
2022/07/10 05:08:01;;;;;;;0.93;0.50;;;;;;;14.68;57.99;101584.84;4883677;29;20028;-78
2022/07/10 05:10:27;;;;;;;0.75;0.40;;;;;;;14.83;57.77;101586.84;4917402;29;20492;-77
2022/07/10 05:12:52;;;;;;;1.48;0.40;;;;;;;14.89;57.61;101582.22;4888084;29;20039;-77
2022/07/10 05:15:18;;;;;;;1.17;0.40;;;;;;;14.92;57.41;101589.94;4872546;29;20017;-78
2022/07/10 05:17:43;;;;;;;1.27;0.57;;;;;;;14.95;57.59;101583.88;4919279;29;20039;-76
2022/07/10 05:20:10;;;;;;;0.25;0.25;;;;;;;14.96;57.67;101585.56;4886492;29;20395;-77
2022/07/10 05:22:35;;;;;;;0.30;0.30;;;;;;;15.00;57.71;101584.75;4905857;29;20036;-77
2022/07/10 05:25:01;;;;;;;1.23;0.52;;;;;;;15.00;57.66;101581.19;4904763;29;20020;-76
2022/07/10 05:27:26;;;;;;;1.10;0.70;;;;;;;15.06;57.75;101591.13;4902676;29;20468;-76
2022/07/10 05:29:52;;;;;;;0.77;0.40;;;;;;;15.08;57.48;101586.16;4921984;29;20718;-77
2022/07/10 05:32:18;;;;;;;0.95;0.35;;;;;;;15.12;57.73;101592.78;4918896;29;20044;-77
2022/07/10 05:34:43;;;;;;;0.75;0.40;;;;;;;15.13;57.67;101583.44;4919070;29;20040;-77
2022/07/10 05:37:09;;;;;;;1.10;0.50;;;;;;;15.23;57.58;101590.09;4882212;29;20040;-75
2022/07/10 05:39:35;;;;;;;0.45;0.38;;;;;;;15.31;57.55;101597.84;4908627;29;20044;-76
2022/07/10 05:42:00;;;;;;;0.40;0.40;;;;;;;15.44;57.37;101591.81;4920542;29;20039;-75
2022/07/10 05:44:25;;;;;;;0.32;0.30;;;;;;;15.61;57.14;101597.13;4919805;29;20115;-74
2022/07/10 05:46:51;;;;;;;0.50;0.40;;;;;;;15.76;56.76;101593.56;4893625;29;20029;-76
2022/07/10 05:49:16;;;;;;;0.57;0.47;;;;;;;15.85;56.94;101591.94;4914109;29;20475;-78
2022/07/10 05:51:42;;;;;;;1.05;0.45;;;;;;;15.88;56.89;101596.91;4904114;29;20048;-79
2022/07/10 05:54:08;;;;;;;0.70;0.40;;;;;;;15.94;56.67;101600.53;4919507;29;21142;-78
2022/07/10 05:56:33;;;;;;;0.40;0.40;;;;;;;16.04;56.67;101602.47;4917613;29;20055;-76
2022/07/10 05:58:59;;;;;;;0.40;0.30;;;;;;;16.11;56.47;101594.75;4920436;29;20032;-76
2022/07/10 06:01:34;;;;;;;0.60;0.47;;;;;;;16.17;56.41;101588.13;4901691;29;20317;-77
2022/07/10 06:04:10;;;;;;;0.50;0.50;;;;;;;16.29;56.52;101585.09;4887656;29;20043;-75
2022/07/10 06:06:38;;;;;;;0.40;0.40;;;;;;;16.39;56.33;101589.78;4882084;29;20024;-75
2022/07/10 06:09:24;;;;;;;;;;;;;;;;;;;;;
2022/07/10 06:15:47;;;;;;;;;;;;;;;;;;;;;
2022/07/10 06:18:56;;;;;;;4.57;0.47;;;;;;;17.09;55.37;101589.13;4911007;29;20040;-78
2022/07/10 06:22:30;;;;;;;1.02;0.60;;;;;;;17.24;54.48;101582.72;4914740;29;20111;-76
2022/07/10 06:24:35;;;;;;;4.05;0.55;;;;;;;17.29;54.68;101582.69;4923157;29;20055;-77
2022/07/10 06:27:51;;;;;;;3.60;0.50;;;;;;;17.48;54.09;101587.56;4923407;29;20032;-76
2022/07/10 06:31:09;;;;;;;;;;;;;;;;;;;;;
2022/07/10 06:34:06;;;;;;;0.82;0.52;;;;;;;17.61;53.88;101567.59;4907246;29;20091;-76
2022/07/10 06:36:36;;;;;;;0.60;0.40;;;;;;;17.89;53.28;101585.41;4926104;29;20036;-76
2022/07/10 06:39:11;;;;;;;0.90;0.70;;;;;;;17.96;52.88;101588.69;4908278;29;20071;-77
2022/07/10 06:45:06;;;;;;;4.43;1.00;;;;;;;18.15;52.72;101590.78;4901484;29;20038;-76
2022/07/10 06:50:28;;;;;;;;;;;;;;;;;;;;;
2022/07/10 06:52:54;;;;;;;1.15;0.98;;;;;;;18.46;52.29;101590.50;4923611;29;20112;-75
2022/07/10 06:55:20;;;;;;;4.15;0.60;;;;;;;18.47;52.29;101592.16;4922573;29;20060;-76
2022/07/10 06:57:47;;;;;;;1.45;1.00;;;;;;;18.61;51.74;101598.66;4918445;29;20032;-76
2022/07/10 07:00:13;;;;;;;1.33;0.80;;;;;;;18.71;51.59;101596.94;4886241;29;20131;-76
2022/07/10 07:02:41;;;;;;;1.20;1.00;;;;;;;18.78;51.64;101589.91;4901087;29;20502;-75
2022/07/10 07:05:08;;;;;;;1.35;0.85;;;;;;;18.92;51.62;101592.81;4903175;29;20025;-77
2022/07/10 07:07:37;;;;;;;1.55;1.30;;;;;;;18.96;51.80;101590.31;4917537;29;20051;-76
2022/07/10 07:10:08;;;;;;;2.08;1.23;;;;;;;18.88;52.01;101590.94;4901949;29;20020;-76
2022/07/10 07:12:50;;;;;;;2.45;1.70;;;;;;;18.94;52.57;101584.22;4901746;29;20059;-76
2022/07/10 07:15:20;;;;;;;2.13;1.17;;;;;;;18.96;52.35;101587.53;4894804;29;20088;-77
2022/07/10 07:23:33;;;;;;;3.20;1.40;;;;;;;19.23;52.35;101586.94;4898975;29;20747;-77
2022/07/10 07:26:01;;;;;;;2.80;1.80;;;;;;;19.34;52.49;101595.94;4890600;29;20157;-77
2022/07/10 07:28:28;;;;;;;1.92;1.33;;;;;;;19.57;52.27;101602.59;4923564;29;20024;-77
2022/07/10 07:31:00;;;;;;;2.97;1.60;;;;;;;19.54;52.24;101594.84;4904014;29;20032;-80
2022/07/10 07:33:25;;;;;;;3.03;2.25;;;;;;;19.33;53.03;101602.59;4883206;29;20841;-78
2022/07/10 07:35:51;;;;;;;5.82;3.30;;;;;;;19.05;54.07;101596.03;4922477;29;20028;-77
2022/07/10 07:38:17;;;;;;;4.30;2.78;;;;;;;18.92;55.01;101603.09;4907485;29;20113;-80
2022/07/10 07:40:42;;;;;;;5.10;2.28;;;;;;;18.98;55.19;101597.22;4907725;29;20032;-78
2022/07/10 07:43:30;;;;;;;;;;;;;;;;;;;;;
2022/07/10 07:45:58;;;;;;;1.83;1.63;;;;;;;19.30;55.01;101587.41;4918799;29;20096;-78
2022/07/10 07:48:25;;;;;;;2.55;1.90;;;;;;;19.57;54.79;101585.94;4890595;29;20096;-77
2022/07/10 07:50:55;;;;;;;4.35;2.60;;;;;;;19.65;54.87;101582.47;4910901;29;20612;-78
2022/07/10 07:53:21;;;;;;;4.72;3.47;;;;;;;19.55;55.61;101582.63;4901086;29;20067;-75
2022/07/10 07:55:46;;;;;;;4.75;3.35;;;;;;;19.60;55.74;101590.88;4897658;29;20032;-77
2022/07/10 07:58:14;;;;;;;10.73;4.72;;;;;;;19.57;56.96;101585.13;4905567;29;20058;-76
2022/07/10 08:01:13;;;;;;;;;;;;;;;;;;;;;
2022/07/10 08:03:38;;;;;;;5.82;3.90;;;;;;;19.23;58.37;101584.16;4914477;29;20128;-78
2022/07/10 08:07:03;;;;;;;;;;;;;;;;;;;;;
2022/07/10 08:18:50;;;;;;;;;;;;;;;;;;;;;
2022/07/10 08:21:23;;;;;;;7.18;4.40;;;;;;;19.23;58.87;101577.78;4903955;29;20115;-77
2022/07/10 08:24:22;;;;;;;;;;;;;;;;;;;;;
2022/07/10 08:27:20;;;;;;;;;;;;;;;;;;;;;
2022/07/10 08:30:21;;;;;;;;;;;;;;;;;;;;;
2022/07/10 08:33:15;;;;;;;;;;;;;;;;;;;;;
2022/07/10 08:36:31;;;;;;;;;;;;;;;;;;;;;
2022/07/10 08:39:42;;;;;;;;;;;;;;;;;;;;;
2022/07/10 08:42:12;;;;;;;9.43;5.20;;;;;;;20.33;57.09;101562.88;4907733;29;20112;-76
2022/07/10 08:44:44;;;;;;;4.53;3.90;;;;;;;20.43;57.10;101567.38;4920605;29;20039;-77
2022/07/10 08:47:13;;;;;;;5.88;4.57;;;;;;;20.52;56.54;101576.69;4902371;29;20032;-77
2022/07/10 08:49:57;;;;;;;4.68;3.22;;;;;;;20.45;56.61;101565.16;4905286;29;20035;-76
2022/07/10 08:53:01;;;;;;;5.05;4.15;;;;;;;20.58;56.69;101562.38;4906579;29;20039;-77
2022/07/10 08:55:27;;;;;;;6.72;4.25;;;;;;;20.70;57.14;101561.91;4881264;29;20036;-77
2022/07/10 08:57:55;;;;;;;7.07;4.53;;;;;;;20.76;57.33;101562.63;4888094;29;20182;-77
2022/07/10 09:00:22;;;;;;;7.95;4.30;;;;;;;20.80;57.14;101560.09;4913757;29;20365;-77
2022/07/10 09:02:47;;;;;;;4.75;3.83;;;;;;;20.91;57.19;101553.19;4906263;29;20032;-77
2022/07/10 09:05:12;;;;;;;7.70;4.20;;;;;;;21.09;56.55;101555.03;4915796;29;20020;-72
2022/07/10 09:07:41;;;;;;;5.38;3.30;;;;;;;21.15;56.05;101549.38;4876802;29;20511;-72
2022/07/10 09:10:08;;;;;;;5.28;3.13;;;;;;;21.33;55.92;101556.75;4905819;29;20383;-72
2022/07/10 09:12:50;;;;;;;3.65;3.10;;;;;;;21.38;55.96;101562.19;4894292;29;20768;-74
2022/07/10 09:15:17;;;;;;;4.03;3.33;;;;;;;21.56;56.01;101545.69;4919331;29;20040;-73
2022/07/10 09:18:00;;;;;;;5.63;2.83;;;;;;;21.84;54.92;101545.59;4908394;29;20039;-71
2022/07/10 09:20:30;;;;;;;5.32;2.30;;;;;;;22.11;54.54;101553.03;4899351;29;20032;-72
2022/07/10 09:22:57;;;;;;;4.32;2.20;;;;;;;22.38;53.74;101549.28;4899141;29;20028;-70
2022/07/10 09:25:31;;;;;;;3.60;2.78;;;;;;;22.56;52.99;101553.00;4915939;29;20131;-71
2022/07/10 09:27:58;;;;;;;2.85;1.83;;;;;;;22.75;52.69;101544.38;4904896;29;20107;-71
2022/07/10 09:30:37;;;;;;;4.68;2.72;;;;;;;22.86;52.10;101546.88;4889979;29;20047;-71
2022/07/10 09:33:29;;;;;;;3.95;2.53;;;;;;;22.98;52.12;101553.50;4899693;29;20096;-72
2022/07/10 09:38:45;;;;;;;4.55;2.65;;;;;;;23.07;50.52;101550.72;4915272;29;20524;-71
2022/07/10 09:41:30;;;;;;;6.38;3.08;;;;;;;22.75;51.77;101537.97;4917375;29;20059;-72
2022/07/10 09:44:08;;;;;;;2.55;1.90;;;;;;;22.63;51.86;101533.84;4897614;29;20028;-72
2022/07/10 09:46:35;;;;;;;1.63;1.20;;;;;;;22.82;51.76;101538.31;4917500;29;20105;-71
2022/07/10 09:49:13;;;;;;;3.92;1.70;;;;;;;22.97;51.69;101535.09;4919292;29;20383;-72
2022/07/10 09:51:43;;;;;;;2.72;1.95;;;;;;;23.14;51.13;101531.59;4922902;29;20111;-72
2022/07/10 09:54:09;;;;;;;5.50;1.83;;;;;;;23.07;51.09;101527.56;4912725;29;20040;-70
2022/07/10 09:56:50;;;;;;;4.60;2.20;;;;;;;23.06;50.72;101531.53;4919026;29;20084;-72
2022/07/10 09:59:17;;;;;;;3.10;2.25;;;;;;;23.03;50.56;101527.41;4887858;29;20043;-72
2022/07/10 10:01:51;;;;;;;3.38;1.55;;;;;;;23.01;50.92;101529.69;4893447;29;20028;-73
2022/07/10 10:04:24;;;;;;;1.40;1.20;;;;;;;23.19;50.82;101527.81;4918071;29;20032;-71
2022/07/10 10:06:52;;;;;;;2.72;1.70;;;;;;;23.39;49.99;101517.97;4906897;29;20039;-71
2022/07/10 10:09:37;;;;;;;3.38;1.90;;;;;;;23.35;50.13;101522.59;4879024;29;20033;-71
2022/07/10 10:12:12;;;;;;;1.58;1.45;;;;;;;23.75;49.25;101514.03;4913899;29;20067;-72
2022/07/10 10:14:39;;;;;;;2.78;1.30;;;;;;;24.07;48.28;101511.91;4896416;29;20168;-72
2022/07/10 10:17:06;;;;;;;3.03;1.73;;;;;;;24.48;46.74;101507.66;4899926;29;20535;-74
2022/07/10 10:22:22;;;;;;;3.33;1.50;;;;;;;24.52;46.56;101511.44;4897892;29;20043;-75
2022/07/10 10:24:48;;;;;;;2.90;2.13;;;;;;;24.80;45.97;101519.41;4919437;29;20024;-75
2022/07/10 10:27:15;;;;;;;3.92;1.88;;;;;;;27.55;41.42;101499.84;4904201;29;20032;-75
2022/07/10 10:29:41;;;;;;;1.30;1.15;;;;;;;30.49;35.95;101517.59;4915384;29;20050;-74
2022/07/10 10:32:07;;;;;;;1.35;1.00;;;;;;;32.59;32.63;101516.28;4900565;29;20024;-73
2022/07/10 10:34:43;;;;;;;3.08;1.30;;;;;;;34.29;28.95;101520.78;4913493;29;20054;-73
2022/07/10 10:37:39;;;;;;;1.15;0.98;;;;;;;35.02;28.80;101522.38;4915583;29;20165;-73
2022/07/10 10:40:09;;;;;;;2.97;1.40;;;;;;;36.02;25.72;101518.34;4914393;29;20044;-74
2022/07/10 10:42:45;;;;;;;2.30;0.90;;;;;;;36.84;24.96;101521.81;4915564;29;20036;-74
2022/07/10 10:45:34;;;;;;;1.05;0.57;;;;;;;38.44;23.89;101522.19;4912649;29;20043;-73
2022/07/10 10:48:08;;;;;;;0.90;0.60;;;;;;;39.90;21.97;101521.84;4915385;29;20026;-73
2022/07/10 10:50:53;;;;;;;1.60;0.90;;;;;;;41.37;19.62;101519.28;4914754;29;20104;-74
2022/07/10 10:53:22;;;;;;;0.70;0.60;;;;;;;42.42;18.26;101509.00;4918167;29;20044;-75
2022/07/10 10:56:00;;;;;;;0.82;0.70;;;;;;;42.82;18.62;101511.31;4914017;29;20062;-72
2022/07/10 10:58:38;;;;;;;0.52;0.50;;;;;;;43.69;18.55;101502.34;4915783;29;20162;-73
2022/07/10 11:01:28;;;;;;;1.30;1.10;;;;;;;44.02;15.44;101505.53;4920197;29;20028;-74
2022/07/10 11:04:10;;;;;;;0.90;0.60;;;;;;;44.58;16.48;101500.69;4923680;29;20032;-75
2022/07/10 11:06:40;;;;;;;1.67;0.63;;;;;;;44.92;15.58;101506.63;4919531;29;20467;-74
2022/07/10 11:09:29;;;;;;;1.30;0.85;;;;;;;45.08;13.86;101497.69;4903482;29;20111;-74
2022/07/10 11:12:05;;;;;;;1.55;0.90;;;;;;;44.25;14.79;101500.50;4920249;29;20087;-74
2022/07/10 11:14:36;;;;;;;0.90;0.60;;;;;;;44.37;15.25;101501.66;4919089;29;20031;-74
2022/07/10 11:17:03;;;;;;;1.48;0.52;;;;;;;46.26;14.59;101501.91;4920707;29;20153;-77
2022/07/10 11:19:30;;;;;;;0.70;0.60;;;;;;;47.76;13.15;101502.19;4920289;29;20080;-76
2022/07/10 11:22:06;;;;;;;0.68;0.60;;;;;;;48.73;12.29;101502.97;4906133;29;20047;-74
2022/07/10 11:25:02;;;;;;;1.05;0.60;;;;;;;49.45;12.06;101503.44;4915964;29;20187;-74
2022/07/10 11:27:40;;;;;;;0.85;0.68;;;;;;;47.87;12.66;101496.53;4906131;29;20045;-75
2022/07/10 11:30:06;;;;;;;0.85;0.50;;;;;;;46.46;13.77;101486.06;4918823;29;23211;-75
2022/07/10 11:32:33;;;;;;;3.80;0.50;;;;;;;46.64;13.58;101483.03;4894840;29;20144;-73
2022/07/10 11:34:59;;;;;;;0.70;0.60;;;;;;;47.97;13.24;101483.50;4918732;29;20114;-73
2022/07/10 11:37:28;;;;;;;7.50;1.67;;;;;;;47.44;12.27;101485.31;4887120;29;20489;-73
2022/07/10 11:40:08;;;;;;;2.75;0.90;;;;;;;47.51;12.33;101476.22;4887666;29;20032;-74
2022/07/10 11:42:54;;;;;;;0.75;0.63;;;;;;;48.20;12.18;101475.16;4917694;29;20032;-73
2022/07/10 11:45:36;;;;;;;0.80;0.55;;;;;;;49.08;11.70;101478.81;4914298;29;20040;-74
2022/07/10 11:48:02;;;;;;;1.05;0.70;;;;;;;47.42;12.09;101466.84;4915072;29;20024;-73
2022/07/10 11:50:37;;;;;;;1.20;0.80;;;;;;;44.28;13.42;101459.19;4917813;29;20052;-73
2022/07/10 11:53:03;;;;;;;0.88;0.52;;;;;;;45.41;13.22;101467.28;4901130;29;20032;-74
2022/07/10 11:55:31;;;;;;;0.70;0.70;;;;;;;47.46;12.02;101464.53;4911819;29;20035;-73
2022/07/10 11:57:56;;;;;;;0.50;0.50;;;;;;;49.25;11.23;101460.78;4918190;29;20024;-74
2022/07/10 12:00:28;;;;;;;1.42;0.45;;;;;;;49.94;11.07;101457.06;4884452;29;20028;-73
2022/07/10 12:02:58;;;;;;;0.63;0.47;;;;;;;50.41;10.91;101451.75;4918641;29;20061;-74
2022/07/10 12:05:38;;;;;;;1.08;0.50;;;;;;;50.56;10.25;101453.59;4918647;29;20036;-74
2022/07/10 12:08:04;;;;;;;1.35;0.60;;;;;;;50.52;10.08;101456.00;4918350;29;20059;-75
2022/07/10 12:10:31;;;;;;;0.50;0.40;;;;;;;51.40;9.69;101452.94;4919239;29;20032;-75
2022/07/10 12:13:09;;;;;;;0.60;0.45;;;;;;;51.88;9.42;101447.31;4903358;29;20024;-76
2022/07/10 12:15:55;;;;;;;0.77;0.50;;;;;;;51.45;9.38;101454.25;4904591;29;20036;-74
2022/07/10 12:18:22;;;;;;;0.95;0.80;;;;;;;49.00;10.12;101451.56;4912629;29;20701;-76
2022/07/10 12:20:50;;;;;;;0.45;0.43;;;;;;;45.22;11.85;101440.59;4919791;29;20032;-74
2022/07/10 12:23:17;;;;;;;2.88;0.77;;;;;;;44.21;12.60;101440.09;4922552;29;20443;-75
2022/07/10 12:26:07;;;;;;;0.88;0.43;;;;;;;47.37;11.63;101428.63;4913726;29;20116;-75
2022/07/10 12:28:50;;;;;;;0.40;0.40;;;;;;;51.18;10.39;101429.66;4889330;29;20055;-75
2022/07/10 12:31:31;;;;;;;0.90;0.60;;;;;;;53.66;8.48;101435.50;4918811;29;20039;-76
2022/07/10 12:34:02;;;;;;;1.63;0.60;;;;;;;54.33;7.76;101438.91;4903513;29;20027;-74
2022/07/10 12:36:51;;;;;;;0.47;0.47;;;;;;;55.10;7.47;101434.56;4903092;29;20020;-74